| time (UTC) | temp F | wind direction | speed MPH | gust MPH | rain 1hr in | rain 24hr in | rain mn in | humidity % | barometer mb |
| 20260507223031 | 65 | 271 | 13.0 | 25.0 | 0.00 | 0.00 | 0.00 | 30 | 1006.7 |
| 20260507221533 | 64 | 275 | 12.0 | 22.0 | 0.00 | 0.00 | 0.00 | 35 | 1006.7 |
| 20260507220026 | 63 | 290 | 12.0 | 18.0 | 0.00 | 0.00 | 0.00 | 29 | 1006.9 |
| 20260507214524 | 64 | 286 | 15.0 | 21.0 | 0.00 | 0.00 | 0.00 | 31 | 1007.0 |
| 20260507213028 | 63 | 281 | 15.0 | 24.0 | 0.00 | 0.00 | 0.00 | 29 | 1007.3 |
| 20260507211519 | 62 | 291 | 14.0 | 20.0 | 0.00 | 0.00 | 0.00 | 37 | 1007.5 |
| 20260507210018 | 62 | 306 | 8.0 | 24.0 | 0.00 | 0.00 | 0.00 | 37 | 1007.6 |
| 20260507204517 | 60 | 256 | 10.0 | 18.0 | 0.00 | 0.00 | 0.00 | 40 | 1007.7 |
| 20260507203031 | 60 | 248 | 10.0 | 21.0 | 0.00 | 0.00 | 0.00 | 38 | 1007.8 |
| 20260507201517 | 60 | 270 | 11.0 | 17.0 | 0.00 | 0.00 | 0.00 | 39 | 1007.8 |
| 20260507200015 | 61 | 267 | 11.0 | 15.0 | 0.00 | 0.00 | 0.00 | 38 | 1008.0 |
| 20260507194519 | 62 | 260 | 15.0 | 24.0 | 0.00 | 0.00 | 0.00 | 37 | 1008.2 |
| 20260507193012 | 60 | 250 | 13.0 | 23.0 | 0.00 | 0.00 | 0.00 | 37 | 1008.3 |
| 20260507191511 | 62 | 263 | 15.0 | 23.0 | 0.00 | 0.00 | 0.00 | 38 | 1008.5 |
| 20260507190012 | 60 | 287 | 7.0 | 17.0 | 0.00 | 0.00 | 0.00 | 41 | 1008.8 |
| 20260507184504 | 59 | 290 | 0.0 | 0.0 | 0.00 | 0.00 | 0.00 | 43 | 1009.0 |
| 20260507183008 | 59 | 298 | 8.0 | 13.0 | 0.00 | 0.00 | 0.00 | 43 | 1009.1 |
| 20260507181601 | 59 | 294 | 2.0 | 11.0 | 0.00 | 0.00 | 0.00 | 41 | 1009.3 |
| 20260507180059 | 59 | 292 | 2.0 | 11.0 | 0.00 | 0.00 | 0.00 | 43 | 1009.6 |
| 20260507174602 | 58 | 301 | 1.0 | 11.0 | 0.00 | 0.00 | 0.00 | 44 | 1009.8 |
| 20260507173125 | 57 | 256 | 0.0 | 8.0 | 0.00 | 0.00 | 0.00 | 44 | 1010.0 |
| 20260507171551 | 57 | 105 | 0.0 | 8.0 | 0.00 | 0.00 | 0.00 | 43 | 1010.0 |
| 20260507170049 | 55 | 152 | 0.0 | 1.0 | 0.00 | 0.00 | 0.00 | 47 | 1010.3 |
| 20260507164544 | 54 | 156 | 0.0 | 6.0 | 0.00 | 0.00 | 0.00 | 47 | 1010.7 |
| 20260507163041 | 54 | 145 | 0.0 | 7.0 | 0.00 | 0.00 | 0.00 | 45 | 1010.8 |
| 20260507161545 | 54 | 184 | 2.0 | 6.0 | 0.00 | 0.00 | 0.00 | 45 | 1011.0 |
| 20260507160038 | 53 | 114 | 5.0 | 10.0 | 0.00 | 0.00 | 0.00 | 45 | 1011.0 |
| 20260507154531 | 52 | 127 | 4.0 | 8.0 | 0.00 | 0.00 | 0.00 | 48 | 1011.2 |
| 20260507153027 | 51 | 221 | 0.0 | 2.0 | 0.00 | 0.00 | 0.00 | 56 | 1011.4 |
| 20260507151522 | 50 | 221 | 0.0 | 0.0 | 0.00 | 0.00 | 0.00 | 56 | 1011.6 |
| 20260507150034 | 49 | 221 | 0.0 | 0.0 | 0.00 | 0.00 | 0.00 | 55 | 1011.7 |
| 20260507144521 | 48 | 221 | 0.0 | 0.0 | 0.00 | 0.00 | 0.00 | 56 | 1011.7 |
| 20260507143017 | 47 | 221 | 0.0 | 0.0 | 0.00 | 0.00 | 0.00 | 58 | 1011.9 |
| 20260507141516 | 47 | 221 | 0.0 | 0.0 | 0.00 | 0.00 | 0.00 | 61 | 1011.9 |
| 20260507140015 | 46 | 221 | 0.0 | 0.0 | 0.00 | 0.00 | 0.00 | 61 | 1012.0 |
| 20260507134513 | 45 | 221 | 0.0 | 0.0 | 0.00 | 0.00 | 0.00 | 63 | 1012.0 |
| 20260507133009 | 42 | 220 | 0.0 | 0.0 | 0.00 | 0.00 | 0.00 | 70 | 1012.3 |
| 20260507131505 | 39 | 220 | 0.0 | 0.0 | 0.00 | 0.00 | 0.00 | 72 | 1012.2 |
| 20260507130005 | 38 | 220 | 0.0 | 0.0 | 0.00 | 0.00 | 0.00 | 71 | 1012.1 |
| 20260507124504 | 39 | 220 | 0.0 | 0.0 | 0.00 | 0.00 | 0.00 | 70 | 1012.1 |
| 20260507123002 | 40 | 220 | 0.0 | 0.0 | 0.00 | 0.00 | 0.00 | 69 | 1012.3 |
| 20260507121603 | 40 | 220 | 0.0 | 3.0 | 0.00 | 0.00 | 0.00 | 69 | 1012.6 |
| 20260507120105 | 39 | 220 | 0.0 | 3.0 | 0.00 | 0.00 | 0.00 | 71 | 1012.6 |
| 20260507114700 | 39 | 220 | 0.0 | 1.0 | 0.00 | 0.00 | 0.00 | 71 | 1012.5 |
| 20260507113058 | 39 | 220 | 0.0 | 3.0 | 0.00 | 0.00 | 0.00 | 71 | 1012.6 |
| 20260507111600 | 39 | 220 | 0.0 | 2.0 | 0.00 | 0.00 | 0.00 | 71 | 1012.7 |
| 20260507110054 | 39 | 220 | 0.0 | 3.0 | 0.00 | 0.00 | 0.00 | 70 | 1012.9 |
| 20260507104552 | 39 | 220 | 0.0 | 0.0 | 0.00 | 0.00 | 0.00 | 70 | 1013.0 |
| 20260507103051 | 40 | 220 | 1.0 | 4.0 | 0.00 | 0.00 | 0.00 | 67 | 1012.8 |
| 20260507101548 | 40 | 223 | 0.0 | 4.0 | 0.00 | 0.00 | 0.00 | 66 | 1012.8 |
| 20260507100043 | 41 | 224 | 0.0 | 4.0 | 0.00 | 0.00 | 0.00 | 64 | 1013.0 |
| 20260507094552 | 44 | 172 | 0.0 | 0.0 | 0.00 | 0.00 | 0.00 | 57 | 1012.9 |
| 20260507093038 | 45 | 172 | 1.0 | 9.0 | 0.00 | 0.00 | 0.00 | 55 | 1013.0 |
| 20260507091537 | 44 | 189 | 3.0 | 8.0 | 0.00 | 0.00 | 0.00 | 60 | 1012.9 |
| 20260507090036 | 43 | 188 | 4.0 | 6.0 | 0.00 | 0.00 | 0.00 | 62 | 1013.0 |
| 20260507084538 | 44 | 173 | 0.0 | 0.0 | 0.00 | 0.00 | 0.00 | 61 | 1013.0 |
| 20260507083030 | 46 | 173 | 0.0 | 2.0 | 0.00 | 0.00 | 0.00 | 54 | 1013.2 |
| 20260507081531 | 48 | 171 | 0.0 | 4.0 | 0.00 | 0.00 | 0.00 | 51 | 1013.3 |
| 20260507080027 | 46 | 185 | 0.0 | 1.0 | 0.00 | 0.00 | 0.00 | 55 | 1013.3 |
| 20260507074526 | 48 | 168 | 0.0 | 0.0 | 0.00 | 0.00 | 0.00 | 52 | 1013.6 |
| 20260507073024 | 48 | 159 | 0.0 | 0.0 | 0.00 | 0.00 | 0.00 | 52 | 1013.7 |
| 20260507071525 | 49 | 159 | 0.0 | 0.0 | 0.00 | 0.00 | 0.00 | 49 | 1014.0 |
| 20260507070028 | 48 | 159 | 2.0 | 6.0 | 0.00 | 0.00 | 0.00 | 52 | 1014.3 |
| 20260507064517 | 46 | 174 | 0.0 | 1.0 | 0.00 | 0.00 | 0.00 | 56 | 1014.2 |
| 20260507063011 | 46 | 174 | 0.0 | 0.0 | 0.00 | 0.00 | 0.00 | 58 | 1014.3 |
| 20260507061510 | 46 | 174 | 0.0 | 1.0 | 0.00 | 0.00 | 0.00 | 56 | 1014.2 |
| 20260507060107 | 46 | 174 | 0.0 | 0.0 | 0.00 | 0.00 | 0.00 | 58 | 1014.4 |
| 20260507054507 | 47 | 174 | 0.0 | 0.0 | 0.00 | 0.00 | 0.00 | 58 | 1014.3 |
| 20260507053006 | 47 | 174 | 0.0 | 0.0 | 0.00 | 0.00 | 0.00 | 57 | 1014.1 |
| 20260507051506 | 48 | 174 | 0.0 | 4.0 | 0.00 | 0.00 | 0.00 | 52 | 1014.2 |
| 20260507050015 | 50 | 154 | 1.0 | 7.0 | 0.00 | 0.00 | 0.00 | 46 | 1014.3 |
| 20260507044507 | 48 | 136 | 1.0 | 7.0 | 0.00 | 0.00 | 0.00 | 51 | 1014.3 |
| 20260507043004 | 47 | 230 | 0.0 | 3.0 | 0.00 | 0.00 | 0.00 | 54 | 1014.5 |
| 20260507041504 | 47 | 230 | 1.0 | 4.0 | 0.00 | 0.00 | 0.00 | 54 | 1014.5 |
| 20260507040004 | 46 | 232 | 0.0 | 3.0 | 0.00 | 0.00 | 0.00 | 57 | 1014.7 |
| 20260507034504 | 46 | 272 | 0.0 | 1.0 | 0.00 | 0.00 | 0.00 | 54 | 1014.7 |
| 20260507033003 | 47 | 272 | 0.0 | 1.0 | 0.00 | 0.00 | 0.00 | 53 | 1014.4 |
| 20260507031502 | 47 | 272 | 0.0 | 1.0 | 0.00 | 0.00 | 0.00 | 53 | 1014.3 |
| 20260507030001 | 48 | 272 | 0.0 | 0.0 | 0.00 | 0.00 | 0.00 | 52 | 1014.4 |
| 20260507024502 | 49 | 272 | 0.0 | 0.0 | 0.00 | 0.00 | 0.00 | 50 | 1014.1 |
| 20260507023001 | 50 | 272 | 0.0 | 0.0 | 0.00 | 0.00 | 0.00 | 49 | 1014.3 |
| 20260507021601 | 52 | 272 | 0.0 | 2.0 | 0.00 | 0.00 | 0.00 | 44 | 1014.2 |
| 20260507020104 | 53 | 272 | 0.0 | 9.0 | 0.00 | 0.00 | 0.00 | 40 | 1014.2 |
| 20260507014605 | 55 | 300 | 8.0 | 14.0 | 0.00 | 0.00 | 0.00 | 39 | 1014.2 |
| 20260507013159 | 56 | 263 | 8.0 | 12.0 | 0.00 | 0.00 | 0.00 | 38 | 1013.9 |
| 20260507011559 | 57 | 281 | 9.0 | 14.0 | 0.00 | 0.00 | 0.00 | 36 | 1013.9 |
| 20260507010057 | 57 | 304 | 9.0 | 17.0 | 0.00 | 0.00 | 0.00 | 37 | 1014.0 |
| 20260507004557 | 55 | 273 | 9.0 | 16.0 | 0.00 | 0.00 | 0.00 | 38 | 1013.9 |
| 20260507003101 | 57 | 296 | 10.0 | 16.0 | 0.00 | 0.00 | 0.00 | 37 | 1013.7 |
| 20260507001602 | 57 | 321 | 10.0 | 20.0 | 0.00 | 0.00 | 0.00 | 34 | 1013.8 |
| 20260507000055 | 58 | 279 | 10.0 | 15.0 | 0.00 | 0.00 | 0.00 | 36 | 1013.7 |
| 20260506234604 | 56 | 300 | 11.0 | 20.0 | 0.00 | 0.00 | 0.00 | 35 | 1013.7 |
| 20260506233056 | 58 | 303 | 3.0 | 11.0 | 0.00 | 0.00 | 0.00 | 31 | 1013.5 |
| 20260506231555 | 59 | 306 | 5.0 | 18.0 | 0.00 | 0.00 | 0.00 | 30 | 1013.5 |
| 20260506230054 | 59 | 324 | 10.0 | 17.0 | 0.00 | 0.00 | 0.00 | 29 | 1013.7 |
| 20260506224550 | 58 | 304 | 2.0 | 17.0 | 0.00 | 0.00 | 0.00 | 27 | 1013.8 |